createdAt,value
2022-11-26T00:01:21.425Z,7.03
2022-11-26T00:03:49.497Z,7.08
2022-11-26T00:06:27.022Z,6.66
2022-11-26T00:08:54.109Z,7.03
2022-11-26T00:11:21.128Z,6.95
2022-11-26T00:13:48.135Z,7.01
2022-11-26T00:16:16.134Z,6.96
2022-11-26T00:18:43.726Z,6.68
2022-11-26T00:21:25.985Z,6.86
2022-11-26T00:23:54.596Z,6.62
2022-11-26T00:26:24.284Z,6.65
2022-11-26T00:29:02.011Z,6.58
2022-11-26T00:31:29.351Z,6.49
2022-11-26T00:33:56.626Z,6.42
2022-11-26T00:36:25.937Z,6.41
2022-11-26T00:39:06.999Z,6.39
2022-11-26T00:41:38.568Z,6.35
2022-11-26T00:44:20.354Z,6.28
2022-11-26T00:46:48.024Z,6.25
2022-11-26T00:49:15.884Z,6.21
2022-11-26T00:51:43.463Z,6.17
2022-11-26T00:54:13.586Z,6.18
2022-11-26T00:56:41.117Z,6.08
2022-11-26T00:59:13.589Z,5.77
2022-11-26T01:01:40.739Z,5.58
2022-11-26T01:04:07.895Z,5.88
2022-11-26T01:06:38.981Z,5.89
2022-11-26T01:09:07.175Z,5.97
2022-11-26T01:11:34.214Z,5.95
2022-11-26T01:14:01.377Z,6.00
2022-11-26T01:16:31.421Z,5.97
2022-11-26T01:19:00.023Z,6.01
2022-11-26T01:21:29.746Z,5.89
2022-11-26T01:23:56.925Z,6.00
2022-11-26T01:26:27.399Z,5.97
2022-11-26T01:28:55.488Z,5.89
2022-11-26T01:31:27.431Z,5.87
2022-11-26T01:33:54.646Z,5.78
2022-11-26T01:36:33.389Z,5.95
2022-11-26T01:39:01.807Z,5.95
2022-11-26T01:42:06.202Z,5.97
2022-11-26T01:44:35.893Z,5.98
2022-11-26T01:47:25.121Z,5.98
2022-11-26T01:50:29.267Z,6.01
2022-11-26T01:52:59.996Z,5.96
2022-11-26T01:55:39.901Z,6.03
2022-11-26T01:58:12.738Z,5.95
2022-11-26T02:00:40.214Z,5.81
2022-11-26T02:03:08.525Z,5.59
2022-11-26T02:05:42.433Z,5.48
2022-11-26T02:08:12.048Z,5.80
2022-11-26T02:10:39.126Z,5.77
2022-11-26T02:13:06.457Z,5.74
2022-11-26T02:16:03.865Z,5.78
2022-11-26T02:18:38.333Z,5.62
2022-11-26T02:21:20.889Z,5.78
2022-11-26T02:24:07.988Z,5.81
2022-11-26T02:26:58.501Z,5.81
2022-11-26T02:29:47.060Z,5.75
2022-11-26T02:32:21.137Z,5.66
2022-11-26T02:34:57.413Z,5.68
2022-11-26T02:37:50.177Z,5.64
2022-11-26T02:40:17.570Z,5.41
2022-11-26T02:42:44.551Z,5.67
2022-11-26T02:45:14.312Z,5.68
2022-11-26T02:47:44.731Z,5.24
2022-11-26T02:50:18.924Z,5.77
2022-11-26T02:52:49.170Z,5.75
2022-11-26T02:55:20.342Z,5.77
2022-11-26T02:57:50.713Z,5.71
2022-11-26T03:00:18.195Z,5.71
2022-11-26T03:02:49.888Z,5.65
2022-11-26T03:05:18.249Z,5.65
2022-11-26T03:07:49.102Z,5.62
2022-11-26T03:10:16.286Z,5.60
2022-11-26T03:12:43.306Z,5.57
2022-11-26T03:15:11.171Z,5.50
2022-11-26T03:17:38.231Z,5.47
2022-11-26T03:20:06.053Z,5.45
2022-11-26T03:22:33.155Z,5.37
2022-11-26T03:25:00.161Z,5.02
2022-11-26T03:27:27.210Z,5.38
2022-11-26T03:29:54.196Z,5.38
2022-11-26T03:32:21.207Z,5.41
2022-11-26T03:34:48.249Z,5.36
2022-11-26T03:37:15.580Z,5.37
2022-11-26T03:39:42.619Z,5.41
2022-11-26T03:42:09.952Z,5.39
2022-11-26T03:44:37.323Z,5.37
2022-11-26T03:47:04.552Z,5.36
2022-11-26T03:49:31.690Z,4.89
2022-11-26T03:51:58.840Z,5.11
2022-11-26T03:54:26.052Z,5.35
2022-11-26T03:56:53.027Z,5.36
2022-11-26T03:59:20.053Z,5.41
2022-11-26T04:01:47.224Z,5.42
2022-11-26T04:04:14.350Z,5.14
2022-11-26T04:06:41.428Z,5.56
2022-11-26T04:09:08.495Z,5.53
2022-11-26T04:11:35.696Z,5.55
2022-11-26T04:14:02.700Z,5.51
2022-11-26T04:16:29.782Z,5.46
2022-11-26T04:18:56.793Z,5.48
2022-11-26T04:21:23.799Z,5.40
2022-11-26T04:23:50.794Z,5.43
2022-11-26T04:26:17.902Z,5.42
2022-11-26T04:28:46.122Z,5.40
2022-11-26T04:31:13.163Z,5.41
2022-11-26T04:33:40.175Z,5.43
2022-11-26T04:36:07.448Z,5.40
2022-11-26T04:38:34.624Z,5.43
2022-11-26T04:41:01.639Z,5.44
2022-11-26T04:43:28.613Z,5.41
2022-11-26T04:45:55.831Z,5.54
2022-11-26T04:48:22.897Z,5.53
2022-11-26T04:50:50.226Z,5.53
2022-11-26T04:53:21.678Z,5.24
2022-11-26T04:55:49.924Z,5.49
2022-11-26T04:58:18.334Z,5.55
2022-11-26T05:00:50.218Z,5.61
2022-11-26T05:03:18.440Z,5.55
2022-11-26T05:05:46.588Z,5.55
2022-11-26T05:08:13.993Z,5.57
2022-11-26T05:10:41.077Z,5.40
2022-11-26T05:13:08.166Z,5.56
2022-11-26T05:15:35.126Z,5.60
2022-11-26T05:18:02.211Z,5.67
2022-11-26T05:20:29.226Z,5.51
2022-11-26T05:22:56.236Z,5.71
2022-11-26T05:25:23.602Z,5.57
2022-11-26T05:27:50.607Z,5.73
2022-11-26T05:30:17.832Z,5.78
2022-11-26T05:32:44.869Z,5.75
2022-11-26T05:35:11.873Z,5.76
2022-11-26T05:37:39.116Z,5.75
2022-11-26T05:40:07.090Z,5.53
2022-11-26T05:42:34.260Z,5.71
2022-11-26T05:45:01.647Z,5.76
2022-11-26T05:47:28.611Z,5.61
2022-11-26T05:49:55.709Z,5.68
2022-11-26T05:52:23.646Z,5.69
2022-11-26T05:54:50.641Z,5.67
2022-11-26T05:57:18.175Z,5.74
2022-11-26T05:59:46.045Z,5.70
2022-11-26T06:02:13.316Z,5.73
2022-11-26T06:04:40.807Z,5.78
2022-11-26T06:07:08.168Z,5.71
2022-11-26T06:09:36.070Z,5.79
2022-11-26T06:12:03.520Z,5.77
2022-11-26T06:14:30.502Z,5.87
2022-11-26T06:16:57.566Z,5.89
2022-11-26T06:19:24.779Z,5.93
2022-11-26T06:21:51.740Z,5.87
2022-11-26T06:24:19.031Z,5.84
2022-11-26T06:26:45.992Z,5.81
2022-11-26T06:29:13.175Z,5.30
2022-11-26T06:31:40.197Z,5.66
2022-11-26T06:34:07.321Z,5.62
2022-11-26T06:36:34.532Z,5.48
2022-11-26T06:39:01.616Z,5.49
2022-11-26T06:41:28.581Z,5.54
2022-11-26T06:43:55.573Z,5.24
2022-11-26T06:46:22.622Z,5.63
2022-11-26T06:48:49.713Z,5.17
2022-11-26T06:51:17.427Z,5.46
2022-11-26T06:53:44.440Z,5.70
2022-11-26T06:56:18.465Z,5.66
2022-11-26T06:58:48.336Z,5.68
2022-11-26T07:01:18.475Z,5.61
2022-11-26T07:03:46.614Z,5.53
2022-11-26T07:06:22.842Z,5.69
2022-11-26T07:08:51.519Z,5.74
2022-11-26T07:11:19.501Z,5.74
2022-11-26T07:13:46.596Z,5.79
2022-11-26T07:16:14.750Z,5.87
2022-11-26T07:18:41.832Z,5.46
2022-11-26T07:21:11.098Z,5.92
2022-11-26T07:23:39.005Z,5.99
2022-11-26T07:26:07.879Z,6.13
2022-11-26T07:28:35.792Z,6.09
2022-11-26T07:31:22.403Z,5.85
2022-11-26T07:33:50.674Z,6.13
2022-11-26T07:36:20.774Z,6.09
2022-11-26T07:38:48.565Z,6.18
2022-11-26T07:41:18.537Z,6.28
2022-11-26T07:43:46.134Z,5.93
2022-11-26T07:46:17.783Z,6.12
2022-11-26T07:48:45.015Z,6.18
2022-11-26T07:51:39.665Z,6.32
2022-11-26T07:54:08.223Z,6.32
2022-11-26T07:56:36.191Z,6.35
2022-11-26T07:59:03.499Z,6.37
2022-11-26T08:01:30.991Z,6.38
2022-11-26T08:04:00.152Z,6.42
2022-11-26T08:06:29.546Z,6.02
2022-11-26T08:08:58.924Z,6.45
2022-11-26T08:11:28.259Z,6.61
2022-11-26T08:14:00.720Z,6.67
2022-11-26T08:16:29.043Z,6.65
2022-11-26T08:18:58.914Z,6.88
2022-11-26T08:21:26.407Z,7.04
2022-11-26T08:23:53.735Z,6.97
2022-11-26T08:26:27.489Z,7.01
2022-11-26T08:28:59.320Z,7.00
2022-11-26T08:31:27.780Z,7.37
2022-11-26T08:33:59.045Z,7.20
2022-11-26T08:36:26.944Z,7.29
2022-11-26T08:38:54.405Z,7.36
2022-11-26T08:41:21.720Z,6.82
2022-11-26T08:44:06.138Z,7.16
2022-11-26T08:46:33.595Z,7.42
2022-11-26T08:49:00.992Z,7.33
2022-11-26T08:51:28.087Z,7.28
2022-11-26T08:53:55.265Z,7.26
2022-11-26T08:56:22.339Z,7.49
2022-11-26T08:58:51.278Z,7.45
2022-11-26T09:01:21.320Z,7.53
2022-11-26T09:03:50.059Z,7.59
2022-11-26T09:06:18.134Z,7.64
2022-11-26T09:09:05.139Z,7.55
2022-11-26T09:11:34.925Z,7.64
2022-11-26T09:14:02.851Z,7.45
2022-11-26T09:16:30.102Z,7.62
2022-11-26T09:19:00.111Z,7.83
2022-11-26T09:21:27.793Z,7.83
2022-11-26T09:23:55.313Z,7.86
2022-11-26T09:26:23.148Z,8.02
2022-11-26T09:28:50.696Z,8.05
2022-11-26T09:31:18.921Z,7.96
2022-11-26T09:33:46.151Z,8.15
2022-11-26T09:36:14.957Z,8.18
2022-11-26T09:38:42.381Z,7.86
2022-11-26T09:41:31.348Z,8.25
2022-11-26T09:44:14.567Z,8.52
2022-11-26T09:47:15.066Z,8.48
2022-11-26T09:50:06.650Z,8.69
2022-11-26T09:52:40.667Z,8.88
2022-11-26T09:55:21.896Z,9.40
2022-11-26T09:58:12.588Z,9.38
2022-11-26T10:00:51.696Z,9.39
2022-11-26T10:03:24.345Z,9.17
2022-11-26T10:05:54.099Z,8.82
2022-11-26T10:08:26.781Z,8.63
2022-11-26T10:11:03.586Z,8.58
2022-11-26T10:13:44.941Z,8.31
2022-11-26T10:16:18.327Z,8.25
2022-11-26T10:19:12.996Z,8.56
2022-11-26T10:22:00.074Z,8.75
2022-11-26T10:24:39.384Z,8.81
2022-11-26T10:27:23.062Z,8.57
2022-11-26T10:29:56.383Z,9.01
2022-11-26T10:32:46.237Z,8.93
2022-11-26T10:35:19.158Z,9.04
2022-11-26T10:37:46.173Z,9.02
2022-11-26T10:40:29.529Z,9.00
2022-11-26T10:43:12.533Z,9.32
2022-11-26T10:45:48.906Z,9.29
2022-11-26T10:48:30.206Z,9.52
2022-11-26T10:51:15.231Z,9.40
2022-11-26T10:53:55.452Z,9.70
2022-11-26T10:56:35.122Z,9.50
2022-11-26T10:59:13.656Z,9.69
2022-11-26T11:01:41.856Z,9.78
2022-11-26T11:04:28.950Z,10.05
2022-11-26T11:06:56.820Z,10.19
2022-11-26T11:09:28.653Z,10.20
2022-11-26T11:12:10.941Z,10.29
2022-11-26T11:14:45.563Z,10.37
2022-11-26T11:17:32.261Z,10.22
2022-11-26T11:20:04.940Z,10.13
2022-11-26T11:22:31.864Z,10.36
2022-11-26T11:25:00.159Z,10.37
2022-11-26T11:27:41.680Z,10.31
2022-11-26T11:30:25.340Z,10.22
2022-11-26T11:32:57.118Z,10.12
2022-11-26T11:35:26.973Z,9.85
2022-11-26T11:37:55.878Z,9.73
2022-11-26T11:40:27.438Z,9.52
2022-11-26T11:43:00.291Z,9.83
2022-11-26T11:45:47.282Z,9.89
2022-11-26T11:48:26.439Z,9.77
2022-11-26T11:51:38.307Z,9.85
2022-11-26T11:54:21.671Z,9.83
2022-11-26T11:57:02.888Z,9.62
2022-11-26T11:59:58.356Z,9.16
2022-11-26T12:02:41.794Z,9.44
2022-11-26T12:05:36.085Z,9.20
2022-11-26T12:08:17.928Z,8.72
2022-11-26T12:11:00.108Z,8.87
2022-11-26T12:13:30.188Z,8.49
2022-11-26T12:16:05.972Z,8.93
2022-11-26T12:18:53.530Z,9.11
2022-11-26T12:21:49.267Z,8.83
2022-11-26T12:24:41.459Z,9.03
2022-11-26T12:27:18.476Z,8.49
2022-11-26T12:29:56.050Z,8.77
2022-11-26T12:32:35.971Z,8.65
2022-11-26T12:35:29.761Z,8.29
2022-11-26T12:38:01.830Z,8.47
2022-11-26T12:40:32.010Z,8.45
2022-11-26T12:43:13.992Z,8.25
2022-11-26T12:45:56.441Z,8.31
2022-11-26T12:48:46.746Z,8.17
2022-11-26T12:51:38.772Z,8.24
2022-11-26T12:54:26.713Z,8.21
2022-11-26T12:57:09.817Z,8.19
2022-11-26T12:59:52.122Z,8.06
2022-11-26T13:02:29.708Z,8.15
2022-11-26T13:04:57.300Z,7.80
2022-11-26T13:07:37.126Z,8.13
2022-11-26T13:10:07.026Z,8.14
2022-11-26T13:13:08.778Z,8.14
2022-11-26T13:15:54.273Z,8.24
2022-11-26T13:18:32.852Z,8.14
2022-11-26T13:21:21.753Z,8.15
2022-11-26T13:23:49.437Z,8.17
2022-11-26T13:26:41.044Z,8.12
2022-11-26T13:29:53.173Z,8.36
2022-11-26T13:32:38.779Z,8.33
2022-11-26T13:35:20.964Z,8.25
2022-11-26T13:38:06.689Z,8.22
2022-11-26T13:40:57.399Z,8.33
2022-11-26T13:43:44.830Z,8.40
2022-11-26T13:46:22.547Z,8.27
2022-11-26T13:49:01.658Z,8.39
2022-11-26T13:52:08.492Z,8.30
2022-11-26T13:54:41.047Z,8.24
2022-11-26T13:57:08.254Z,8.45
2022-11-26T13:59:36.692Z,8.30
2022-11-26T14:02:42.489Z,8.28
2022-11-26T14:05:13.369Z,8.29
2022-11-26T14:07:40.818Z,8.29
2022-11-26T14:10:36.936Z,8.11
2022-11-26T14:13:11.558Z,8.00
2022-11-26T14:15:41.225Z,8.06
2022-11-26T14:18:13.449Z,8.11
2022-11-26T14:21:09.684Z,8.09
2022-11-26T14:23:57.422Z,8.01
2022-11-26T14:26:29.142Z,8.06
2022-11-26T14:29:17.548Z,8.03
2022-11-26T14:31:54.095Z,7.97
2022-11-26T14:34:42.375Z,8.05
2022-11-26T14:37:14.502Z,8.03
2022-11-26T14:39:41.567Z,7.99
2022-11-26T14:42:16.319Z,8.04
2022-11-26T14:44:44.270Z,7.92
2022-11-26T14:47:17.630Z,7.93
2022-11-26T14:49:56.364Z,7.93
2022-11-26T14:52:26.538Z,7.85
2022-11-26T14:54:58.105Z,7.59
2022-11-26T14:57:50.347Z,7.71
2022-11-26T15:00:17.270Z,7.67
2022-11-26T15:02:48.461Z,7.65
2022-11-26T15:05:19.108Z,7.64
2022-11-26T15:07:47.618Z,7.62
2022-11-26T15:10:14.637Z,7.51
2022-11-26T15:12:43.907Z,7.51
2022-11-26T15:15:21.831Z,7.45
2022-11-26T15:17:56.124Z,7.51
2022-11-26T15:20:23.959Z,7.54
2022-11-26T15:22:53.621Z,7.46
2022-11-26T15:25:25.825Z,7.25
2022-11-26T15:28:16.130Z,7.32
2022-11-26T15:30:59.996Z,7.37
2022-11-26T15:33:29.510Z,7.20
2022-11-26T15:35:57.229Z,7.15
2022-11-26T15:38:27.122Z,7.17
2022-11-26T15:40:58.232Z,7.19
2022-11-26T15:43:34.317Z,7.04
2022-11-26T15:46:10.876Z,7.05
2022-11-26T15:48:52.030Z,6.94
2022-11-26T15:51:30.718Z,6.87
2022-11-26T15:54:02.435Z,6.62
2022-11-26T15:56:35.912Z,6.61
2022-11-26T15:59:13.719Z,6.71
2022-11-26T16:01:44.286Z,6.68
2022-11-26T16:04:33.184Z,6.67
2022-11-26T16:07:21.110Z,6.34
2022-11-26T16:09:50.464Z,6.61
2022-11-26T16:12:35.396Z,6.49
2022-11-26T16:15:26.328Z,6.52
2022-11-26T16:17:53.739Z,6.13
2022-11-26T16:20:26.740Z,6.17
2022-11-26T16:22:57.765Z,6.42
2022-11-26T16:25:27.740Z,6.40
2022-11-26T16:28:14.776Z,6.36
2022-11-26T16:30:43.910Z,6.32
2022-11-26T16:33:11.104Z,6.06
2022-11-26T16:35:46.737Z,6.25
2022-11-26T16:38:26.005Z,6.09
2022-11-26T16:40:53.874Z,6.12
2022-11-26T16:43:21.033Z,6.09
2022-11-26T16:45:50.438Z,6.04
2022-11-26T16:48:27.578Z,5.98
2022-11-26T16:50:55.730Z,5.94
2022-11-26T16:53:23.055Z,5.91
2022-11-26T16:55:52.084Z,5.88
2022-11-26T16:58:32.040Z,5.66
2022-11-26T17:00:59.422Z,5.73
2022-11-26T17:03:29.805Z,5.81
2022-11-26T17:05:59.984Z,5.80
2022-11-26T17:08:28.859Z,5.70
2022-11-26T17:10:56.397Z,5.38
2022-11-26T17:13:23.597Z,5.62
2022-11-26T17:15:51.653Z,5.63
2022-11-26T17:18:25.338Z,5.27
2022-11-26T17:20:53.609Z,5.27
2022-11-26T17:23:20.945Z,5.41
2022-11-26T17:25:52.229Z,5.42
2022-11-26T17:28:21.249Z,5.41
2022-11-26T17:30:48.392Z,5.39
2022-11-26T17:33:15.630Z,5.31
2022-11-26T17:35:42.788Z,5.27
2022-11-26T17:38:19.711Z,5.24
2022-11-26T17:40:47.793Z,5.17
2022-11-26T17:43:14.889Z,5.07
2022-11-26T17:45:42.021Z,5.11
2022-11-26T17:48:13.132Z,5.09
2022-11-26T17:50:41.311Z,4.65
2022-11-26T17:53:08.685Z,4.88
2022-11-26T17:55:35.832Z,5.26
2022-11-26T17:58:02.921Z,5.20
2022-11-26T18:00:30.142Z,5.14
2022-11-26T18:02:57.804Z,5.13
2022-11-26T18:05:25.126Z,5.04
2022-11-26T18:07:52.592Z,5.27
2022-11-26T18:10:22.183Z,5.32
2022-11-26T18:12:53.373Z,5.33
2022-11-26T18:15:23.421Z,5.30
2022-11-26T18:17:54.080Z,5.27
2022-11-26T18:20:23.859Z,5.15
2022-11-26T18:22:56.310Z,5.29
2022-11-26T18:25:23.371Z,5.18
2022-11-26T18:27:50.475Z,5.24
2022-11-26T18:30:18.121Z,5.21
2022-11-26T18:32:45.181Z,5.16
2022-11-26T18:35:13.095Z,5.00
2022-11-26T18:37:40.490Z,5.11
2022-11-26T18:40:10.337Z,5.00
2022-11-26T18:42:38.375Z,4.97
2022-11-26T18:45:07.610Z,5.11
2022-11-26T18:47:34.871Z,5.11
2022-11-26T18:50:01.864Z,5.06
2022-11-26T18:52:29.348Z,4.94
2022-11-26T18:54:56.399Z,4.99
2022-11-26T18:57:23.439Z,4.53
2022-11-26T18:59:51.390Z,4.94
2022-11-26T19:02:18.584Z,4.73
2022-11-26T19:04:45.682Z,4.82
2022-11-26T19:07:13.935Z,4.75
2022-11-26T19:09:41.523Z,4.70
2022-11-26T19:12:08.966Z,4.63
2022-11-26T19:14:36.537Z,4.46
2022-11-26T19:17:03.857Z,4.61
2022-11-26T19:19:32.120Z,4.52
2022-11-26T19:22:01.358Z,4.44
2022-11-26T19:24:29.866Z,4.59
2022-11-26T19:26:57.210Z,4.52
2022-11-26T19:29:24.349Z,4.55
2022-11-26T19:31:51.540Z,4.52
2022-11-26T19:34:18.649Z,4.57
2022-11-26T19:36:48.359Z,4.44
2022-11-26T19:39:16.552Z,4.45
2022-11-26T19:41:43.713Z,4.39
2022-11-26T19:44:11.824Z,4.39
2022-11-26T19:46:41.094Z,4.41
2022-11-26T19:49:11.836Z,4.42
2022-11-26T19:51:40.022Z,4.10
2022-11-26T19:54:07.543Z,4.29
2022-11-26T19:56:35.110Z,4.31
2022-11-26T19:59:02.536Z,4.30
2022-11-26T20:01:32.085Z,4.29
2022-11-26T20:04:01.407Z,4.07
2022-11-26T20:06:29.952Z,4.22
2022-11-26T20:08:58.926Z,4.24
2022-11-26T20:11:27.402Z,4.20
2022-11-26T20:13:55.332Z,4.25
2022-11-26T20:16:25.004Z,4.25
2022-11-26T20:18:52.145Z,4.24
2022-11-26T20:21:21.832Z,4.29
2022-11-26T20:23:50.384Z,4.40
2022-11-26T20:26:19.160Z,4.42
2022-11-26T20:28:46.385Z,4.45
2022-11-26T20:31:16.347Z,4.40
2022-11-26T20:33:46.693Z,4.15
2022-11-26T20:36:15.352Z,4.53
2022-11-26T20:38:42.361Z,4.45
2022-11-26T20:41:11.901Z,4.03
2022-11-26T20:43:39.305Z,4.26
2022-11-26T20:46:07.726Z,4.53
2022-11-26T20:48:36.120Z,4.07
2022-11-26T20:51:12.192Z,4.41
2022-11-26T20:53:40.605Z,4.40
2022-11-26T20:56:08.737Z,4.42
2022-11-26T20:58:36.141Z,4.44
2022-11-26T21:01:03.592Z,4.41
2022-11-26T21:03:31.119Z,4.55
2022-11-26T21:06:02.647Z,4.49
2022-11-26T21:08:29.966Z,4.55
2022-11-26T21:10:57.074Z,4.63
2022-11-26T21:13:24.089Z,4.67
2022-11-26T21:15:51.188Z,4.72
2022-11-26T21:18:18.251Z,4.71
2022-11-26T21:20:45.387Z,4.66
2022-11-26T21:23:13.331Z,4.67
2022-11-26T21:25:42.460Z,4.56
2022-11-26T21:28:10.603Z,4.62
2022-11-26T21:30:38.655Z,4.66
2022-11-26T21:33:09.282Z,4.65
2022-11-26T21:35:37.561Z,4.74
2022-11-26T21:38:05.797Z,4.80
2022-11-26T21:40:33.196Z,4.78
2022-11-26T21:43:00.170Z,4.61
2022-11-26T21:45:30.126Z,4.87
2022-11-26T21:47:57.127Z,4.94
2022-11-26T21:50:24.113Z,4.94
2022-11-26T21:52:51.094Z,4.96
2022-11-26T21:55:18.081Z,4.92
2022-11-26T21:57:45.600Z,4.98
2022-11-26T22:00:13.191Z,4.97
2022-11-26T22:02:40.199Z,4.99
2022-11-26T22:05:07.558Z,5.06
2022-11-26T22:07:34.755Z,5.14
2022-11-26T22:10:01.897Z,5.17
2022-11-26T22:12:29.256Z,5.12
2022-11-26T22:14:56.277Z,5.16
2022-11-26T22:17:23.307Z,5.14
2022-11-26T22:19:50.325Z,5.23
2022-11-26T22:22:17.324Z,5.20
2022-11-26T22:24:44.363Z,5.24
2022-11-26T22:27:11.368Z,5.25
2022-11-26T22:29:38.606Z,5.34
2022-11-26T22:32:05.948Z,5.38
2022-11-26T22:34:33.051Z,5.34
2022-11-26T22:37:00.094Z,5.32
2022-11-26T22:39:27.080Z,5.24
2022-11-26T22:41:54.105Z,5.23
2022-11-26T22:44:21.179Z,5.37
2022-11-26T22:46:48.195Z,5.37
2022-11-26T22:49:18.685Z,5.38
2022-11-26T22:51:47.281Z,5.31
2022-11-26T22:54:15.591Z,5.34
2022-11-26T22:56:42.637Z,5.32
2022-11-26T22:59:12.568Z,5.28
2022-11-26T23:01:39.923Z,5.28
2022-11-26T23:04:09.015Z,4.69
2022-11-26T23:06:36.780Z,5.20
2022-11-26T23:09:06.282Z,5.21
2022-11-26T23:11:37.515Z,5.20
2022-11-26T23:14:07.247Z,5.21
2022-11-26T23:16:36.082Z,5.14
2022-11-26T23:19:03.943Z,5.09
2022-11-26T23:21:38.231Z,5.07
2022-11-26T23:24:06.441Z,5.09
2022-11-26T23:26:35.637Z,5.14
2022-11-26T23:29:04.023Z,5.09
2022-11-26T23:31:34.376Z,4.99
2022-11-26T23:34:02.283Z,5.01
2022-11-26T23:36:30.132Z,5.03
2022-11-26T23:38:59.497Z,4.96
2022-11-26T23:41:26.765Z,4.97
2022-11-26T23:43:54.251Z,4.87
2022-11-26T23:46:24.099Z,4.74
2022-11-26T23:48:51.584Z,4.82
2022-11-26T23:51:21.955Z,4.82
2022-11-26T23:53:50.431Z,4.82
2022-11-26T23:56:28.899Z,4.76
2022-11-26T23:58:58.072Z,4.70
